sensor_id;sensor_type;location;lat;lon;timestamp;P1;durP1;ratioP1;P2;durP2;ratioP2
577;SDS011;275;48.492;9.214;2023-01-15T00:00:57;1.70;;;0.50;;
577;SDS011;275;48.492;9.214;2023-01-15T00:03:26;2.13;;;0.80;;
577;SDS011;275;48.492;9.214;2023-01-15T00:05:53;1.90;;;0.60;;
577;SDS011;275;48.492;9.214;2023-01-15T00:08:20;2.73;;;0.80;;
577;SDS011;275;48.492;9.214;2023-01-15T00:10:48;2.47;;;0.80;;
577;SDS011;275;48.492;9.214;2023-01-15T00:13:15;1.80;;;0.60;;
577;SDS011;275;48.492;9.214;2023-01-15T00:15:42;1.60;;;0.50;;
577;SDS011;275;48.492;9.214;2023-01-15T00:18:09;2.42;;;0.70;;
577;SDS011;275;48.492;9.214;2023-01-15T00:20:35;1.70;;;0.50;;
577;SDS011;275;48.492;9.214;2023-01-15T00:23:02;2.10;;;0.50;;
577;SDS011;275;48.492;9.214;2023-01-15T00:25:29;1.85;;;0.50;;
577;SDS011;275;48.492;9.214;2023-01-15T00:28:15;2.25;;;0.73;;
577;SDS011;275;48.492;9.214;2023-01-15T00:30:42;2.17;;;0.60;;
577;SDS011;275;48.492;9.214;2023-01-15T00:33:09;2.20;;;0.70;;
577;SDS011;275;48.492;9.214;2023-01-15T00:35:36;1.80;;;0.50;;
577;SDS011;275;48.492;9.214;2023-01-15T00:38:02;2.50;;;0.70;;
577;SDS011;275;48.492;9.214;2023-01-15T00:40:29;2.00;;;0.70;;
577;SDS011;275;48.492;9.214;2023-01-15T00:42:56;2.20;;;0.70;;
577;SDS011;275;48.492;9.214;2023-01-15T00:45:24;2.00;;;0.60;;
577;SDS011;275;48.492;9.214;2023-01-15T00:47:51;1.63;;;0.50;;
577;SDS011;275;48.492;9.214;2023-01-15T00:50:18;1.80;;;0.50;;
577;SDS011;275;48.492;9.214;2023-01-15T00:52:45;2.35;;;0.70;;
577;SDS011;275;48.492;9.214;2023-01-15T00:55:11;1.90;;;0.57;;
577;SDS011;275;48.492;9.214;2023-01-15T00:57:38;1.70;;;0.50;;
577;SDS011;275;48.492;9.214;2023-01-15T01:00:05;2.07;;;0.50;;
577;SDS011;275;48.492;9.214;2023-01-15T01:02:34;2.10;;;0.60;;
577;SDS011;275;48.492;9.214;2023-01-15T01:05:01;1.80;;;0.50;;
577;SDS011;275;48.492;9.214;2023-01-15T01:07:28;2.40;;;0.60;;
577;SDS011;275;48.492;9.214;2023-01-15T01:09:55;2.20;;;0.50;;
577;SDS011;275;48.492;9.214;2023-01-15T01:12:21;1.70;;;0.50;;
577;SDS011;275;48.492;9.214;2023-01-15T01:14:48;1.67;;;0.40;;
577;SDS011;275;48.492;9.214;2023-01-15T01:17:15;1.70;;;0.63;;
577;SDS011;275;48.492;9.214;2023-01-15T01:19:43;2.10;;;0.52;;
577;SDS011;275;48.492;9.214;2023-01-15T01:22:10;1.95;;;0.65;;
577;SDS011;275;48.492;9.214;2023-01-15T01:24:37;1.70;;;0.50;;
577;SDS011;275;48.492;9.214;2023-01-15T01:27:03;1.90;;;0.57;;
577;SDS011;275;48.492;9.214;2023-01-15T01:29:30;2.20;;;0.70;;
577;SDS011;275;48.492;9.214;2023-01-15T01:31:57;1.75;;;0.50;;
577;SDS011;275;48.492;9.214;2023-01-15T01:34:24;1.83;;;0.57;;
577;SDS011;275;48.492;9.214;2023-01-15T01:36:52;2.03;;;0.60;;
577;SDS011;275;48.492;9.214;2023-01-15T01:39:19;1.70;;;0.43;;
577;SDS011;275;48.492;9.214;2023-01-15T01:41:46;1.88;;;0.55;;
577;SDS011;275;48.492;9.214;2023-01-15T01:47:17;1.70;;;0.47;;
577;SDS011;275;48.492;9.214;2023-01-15T01:49:47;1.85;;;0.60;;
577;SDS011;275;48.492;9.214;2023-01-15T01:52:18;1.73;;;0.55;;
577;SDS011;275;48.492;9.214;2023-01-15T01:54:50;1.75;;;0.50;;
577;SDS011;275;48.492;9.214;2023-01-15T01:57:17;1.70;;;0.50;;
577;SDS011;275;48.492;9.214;2023-01-15T01:59:46;1.70;;;0.52;;
577;SDS011;275;48.492;9.214;2023-01-15T02:02:14;1.70;;;0.40;;
577;SDS011;275;48.492;9.214;2023-01-15T02:04:42;1.70;;;0.50;;
577;SDS011;275;48.492;9.214;2023-01-15T02:07:09;1.60;;;0.50;;
577;SDS011;275;48.492;9.214;2023-01-15T02:09:37;1.70;;;0.45;;
577;SDS011;275;48.492;9.214;2023-01-15T02:12:06;2.00;;;0.50;;
577;SDS011;275;48.492;9.214;2023-01-15T02:14:37;1.70;;;0.50;;
577;SDS011;275;48.492;9.214;2023-01-15T02:17:10;1.70;;;0.43;;
577;SDS011;275;48.492;9.214;2023-01-15T02:19:44;1.70;;;0.40;;
577;SDS011;275;48.492;9.214;2023-01-15T02:22:27;1.60;;;0.40;;
577;SDS011;275;48.492;9.214;2023-01-15T02:25:06;1.70;;;0.40;;
577;SDS011;275;48.492;9.214;2023-01-15T02:27:41;1.70;;;0.50;;
577;SDS011;275;48.492;9.214;2023-01-15T02:30:14;1.70;;;0.40;;
577;SDS011;275;48.492;9.214;2023-01-15T02:32:48;1.70;;;0.50;;
577;SDS011;275;48.492;9.214;2023-01-15T02:35:18;2.10;;;0.60;;
577;SDS011;275;48.492;9.214;2023-01-15T02:37:50;3.20;;;0.70;;
577;SDS011;275;48.492;9.214;2023-01-15T02:40:20;2.00;;;0.60;;
577;SDS011;275;48.492;9.214;2023-01-15T02:42:50;1.60;;;0.40;;
577;SDS011;275;48.492;9.214;2023-01-15T02:45:19;1.67;;;0.50;;
577;SDS011;275;48.492;9.214;2023-01-15T02:47:50;2.00;;;0.50;;
577;SDS011;275;48.492;9.214;2023-01-15T02:50:20;1.70;;;0.43;;
577;SDS011;275;48.492;9.214;2023-01-15T02:52:52;1.70;;;0.40;;
577;SDS011;275;48.492;9.214;2023-01-15T02:55:24;1.80;;;0.50;;
577;SDS011;275;48.492;9.214;2023-01-15T02:57:56;1.60;;;0.40;;
577;SDS011;275;48.492;9.214;2023-01-15T03:00:26;1.80;;;0.50;;
577;SDS011;275;48.492;9.214;2023-01-15T03:02:58;1.63;;;0.40;;
577;SDS011;275;48.492;9.214;2023-01-15T03:05:34;1.70;;;0.50;;
577;SDS011;275;48.492;9.214;2023-01-15T03:08:03;1.67;;;0.40;;
577;SDS011;275;48.492;9.214;2023-01-15T03:10:34;1.60;;;0.40;;
577;SDS011;275;48.492;9.214;2023-01-15T03:13:06;1.90;;;0.50;;
577;SDS011;275;48.492;9.214;2023-01-15T03:15:40;1.70;;;0.40;;
577;SDS011;275;48.492;9.214;2023-01-15T03:18:30;1.70;;;0.50;;
577;SDS011;275;48.492;9.214;2023-01-15T03:21:07;1.70;;;0.40;;
577;SDS011;275;48.492;9.214;2023-01-15T03:23:37;1.80;;;0.50;;
577;SDS011;275;48.492;9.214;2023-01-15T03:26:06;2.00;;;0.50;;
577;SDS011;275;48.492;9.214;2023-01-15T03:28:35;1.77;;;0.50;;
577;SDS011;275;48.492;9.214;2023-01-15T03:31:04;1.87;;;0.50;;
577;SDS011;275;48.492;9.214;2023-01-15T03:33:32;1.80;;;0.40;;
577;SDS011;275;48.492;9.214;2023-01-15T03:36:00;1.83;;;0.50;;
577;SDS011;275;48.492;9.214;2023-01-15T03:38:28;1.67;;;0.53;;
577;SDS011;275;48.492;9.214;2023-01-15T03:41:00;1.70;;;0.50;;
577;SDS011;275;48.492;9.214;2023-01-15T03:43:37;1.60;;;0.40;;
577;SDS011;275;48.492;9.214;2023-01-15T03:46:14;1.60;;;0.40;;
577;SDS011;275;48.492;9.214;2023-01-15T03:48:55;1.60;;;0.40;;
577;SDS011;275;48.492;9.214;2023-01-15T03:51:29;1.70;;;0.40;;
577;SDS011;275;48.492;9.214;2023-01-15T03:54:02;1.70;;;0.40;;
577;SDS011;275;48.492;9.214;2023-01-15T03:56:32;3.55;;;0.50;;
577;SDS011;275;48.492;9.214;2023-01-15T03:59:04;3.65;;;0.70;;
577;SDS011;275;48.492;9.214;2023-01-15T04:01:37;1.73;;;0.47;;
577;SDS011;275;48.492;9.214;2023-01-15T04:04:06;1.70;;;0.40;;
577;SDS011;275;48.492;9.214;2023-01-15T04:06:35;1.70;;;0.50;;
577;SDS011;275;48.492;9.214;2023-01-15T04:09:05;2.00;;;0.60;;
577;SDS011;275;48.492;9.214;2023-01-15T04:11:34;1.60;;;0.40;;
577;SDS011;275;48.492;9.214;2023-01-15T04:14:01;1.67;;;0.40;;
577;SDS011;275;48.492;9.214;2023-01-15T04:16:31;1.67;;;0.40;;
577;SDS011;275;48.492;9.214;2023-01-15T04:18:58;1.70;;;0.40;;
577;SDS011;275;48.492;9.214;2023-01-15T04:21:25;1.70;;;0.50;;
577;SDS011;275;48.492;9.214;2023-01-15T04:23:52;1.70;;;0.43;;
577;SDS011;275;48.492;9.214;2023-01-15T04:26:19;1.60;;;0.40;;
577;SDS011;275;48.492;9.214;2023-01-15T04:28:46;1.80;;;0.50;;
577;SDS011;275;48.492;9.214;2023-01-15T04:31:14;1.60;;;0.40;;
577;SDS011;275;48.492;9.214;2023-01-15T04:33:41;1.70;;;0.40;;
577;SDS011;275;48.492;9.214;2023-01-15T04:36:08;1.80;;;0.50;;
577;SDS011;275;48.492;9.214;2023-01-15T04:38:35;2.80;;;1.27;;
577;SDS011;275;48.492;9.214;2023-01-15T04:41:02;4.65;;;2.47;;
577;SDS011;275;48.492;9.214;2023-01-15T04:43:47;1.90;;;0.50;;
577;SDS011;275;48.492;9.214;2023-01-15T04:46:34;2.97;;;0.65;;
577;SDS011;275;48.492;9.214;2023-01-15T04:49:03;1.70;;;0.50;;
577;SDS011;275;48.492;9.214;2023-01-15T04:51:30;3.23;;;1.40;;
577;SDS011;275;48.492;9.214;2023-01-15T04:53:57;1.80;;;0.60;;
577;SDS011;275;48.492;9.214;2023-01-15T04:56:25;2.58;;;1.25;;
577;SDS011;275;48.492;9.214;2023-01-15T04:58:52;2.47;;;1.10;;
577;SDS011;275;48.492;9.214;2023-01-15T05:01:19;2.42;;;1.33;;
577;SDS011;275;48.492;9.214;2023-01-15T05:03:47;1.90;;;0.50;;
577;SDS011;275;48.492;9.214;2023-01-15T05:06:14;1.80;;;0.60;;
577;SDS011;275;48.492;9.214;2023-01-15T05:08:42;1.70;;;0.40;;
577;SDS011;275;48.492;9.214;2023-01-15T05:11:09;1.70;;;0.50;;
577;SDS011;275;48.492;9.214;2023-01-15T05:13:36;1.70;;;0.47;;
577;SDS011;275;48.492;9.214;2023-01-15T05:16:07;1.70;;;0.50;;
577;SDS011;275;48.492;9.214;2023-01-15T05:18:35;2.33;;;0.70;;
577;SDS011;275;48.492;9.214;2023-01-15T05:21:03;1.80;;;0.60;;
577;SDS011;275;48.492;9.214;2023-01-15T05:23:30;2.05;;;1.02;;
577;SDS011;275;48.492;9.214;2023-01-15T05:25:57;1.70;;;0.50;;
577;SDS011;275;48.492;9.214;2023-01-15T05:28:27;1.80;;;0.50;;
577;SDS011;275;48.492;9.214;2023-01-15T05:30:54;1.60;;;0.40;;
577;SDS011;275;48.492;9.214;2023-01-15T05:33:20;2.08;;;0.73;;
577;SDS011;275;48.492;9.214;2023-01-15T05:35:47;1.70;;;0.50;;
577;SDS011;275;48.492;9.214;2023-01-15T05:38:15;1.75;;;0.60;;
577;SDS011;275;48.492;9.214;2023-01-15T05:40:42;1.70;;;0.50;;
577;SDS011;275;48.492;9.214;2023-01-15T05:43:09;1.70;;;0.50;;
577;SDS011;275;48.492;9.214;2023-01-15T05:45:36;1.80;;;0.40;;
577;SDS011;275;48.492;9.214;2023-01-15T05:48:03;1.70;;;0.60;;
577;SDS011;275;48.492;9.214;2023-01-15T05:50:30;3.35;;;0.60;;
577;SDS011;275;48.492;9.214;2023-01-15T05:52:56;2.00;;;0.50;;
577;SDS011;275;48.492;9.214;2023-01-15T05:55:24;1.70;;;0.50;;
577;SDS011;275;48.492;9.214;2023-01-15T05:57:51;1.85;;;0.50;;
577;SDS011;275;48.492;9.214;2023-01-15T06:00:18;1.90;;;0.50;;
577;SDS011;275;48.492;9.214;2023-01-15T06:02:47;1.70;;;0.57;;
577;SDS011;275;48.492;9.214;2023-01-15T06:05:14;1.85;;;0.65;;
577;SDS011;275;48.492;9.214;2023-01-15T06:07:44;1.77;;;0.45;;
577;SDS011;275;48.492;9.214;2023-01-15T06:10:13;1.80;;;0.50;;
577;SDS011;275;48.492;9.214;2023-01-15T06:12:42;1.80;;;0.60;;
577;SDS011;275;48.492;9.214;2023-01-15T06:15:10;1.80;;;0.60;;
577;SDS011;275;48.492;9.214;2023-01-15T06:17:37;1.83;;;0.40;;
577;SDS011;275;48.492;9.214;2023-01-15T06:20:04;1.70;;;0.52;;
577;SDS011;275;48.492;9.214;2023-01-15T06:22:31;1.80;;;0.50;;
577;SDS011;275;48.492;9.214;2023-01-15T06:24:58;2.25;;;0.50;;
577;SDS011;275;48.492;9.214;2023-01-15T06:27:25;1.70;;;0.57;;
577;SDS011;275;48.492;9.214;2023-01-15T06:29:54;1.70;;;0.55;;
577;SDS011;275;48.492;9.214;2023-01-15T06:32:23;1.70;;;0.50;;
577;SDS011;275;48.492;9.214;2023-01-15T06:34:50;1.70;;;0.50;;
577;SDS011;275;48.492;9.214;2023-01-15T06:37:17;2.15;;;0.85;;
577;SDS011;275;48.492;9.214;2023-01-15T06:39:44;1.67;;;0.50;;
577;SDS011;275;48.492;9.214;2023-01-15T06:42:11;2.33;;;0.57;;
577;SDS011;275;48.492;9.214;2023-01-15T06:44:56;2.17;;;0.60;;
577;SDS011;275;48.492;9.214;2023-01-15T06:47:41;1.70;;;0.60;;
577;SDS011;275;48.492;9.214;2023-01-15T06:50:10;1.60;;;0.50;;
577;SDS011;275;48.492;9.214;2023-01-15T06:52:37;1.70;;;0.70;;
577;SDS011;275;48.492;9.214;2023-01-15T06:55:04;1.90;;;0.70;;
577;SDS011;275;48.492;9.214;2023-01-15T06:57:32;1.92;;;0.70;;
577;SDS011;275;48.492;9.214;2023-01-15T07:00:00;2.00;;;0.93;;
577;SDS011;275;48.492;9.214;2023-01-15T07:02:27;1.70;;;0.60;;
577;SDS011;275;48.492;9.214;2023-01-15T07:04:53;2.25;;;1.00;;
577;SDS011;275;48.492;9.214;2023-01-15T07:07:21;1.70;;;0.63;;
577;SDS011;275;48.492;9.214;2023-01-15T07:09:47;1.90;;;0.75;;
577;SDS011;275;48.492;9.214;2023-01-15T07:12:15;1.60;;;0.60;;
577;SDS011;275;48.492;9.214;2023-01-15T07:14:42;1.83;;;0.70;;
577;SDS011;275;48.492;9.214;2023-01-15T07:17:10;1.75;;;0.80;;
577;SDS011;275;48.492;9.214;2023-01-15T07:19:37;2.10;;;0.75;;
577;SDS011;275;48.492;9.214;2023-01-15T07:22:04;1.80;;;0.70;;
577;SDS011;275;48.492;9.214;2023-01-15T07:24:32;2.58;;;0.85;;
577;SDS011;275;48.492;9.214;2023-01-15T07:26:59;1.70;;;0.65;;
577;SDS011;275;48.492;9.214;2023-01-15T07:29:26;1.65;;;0.68;;
577;SDS011;275;48.492;9.214;2023-01-15T07:31:52;2.40;;;0.85;;
577;SDS011;275;48.492;9.214;2023-01-15T07:34:21;1.70;;;0.80;;
577;SDS011;275;48.492;9.214;2023-01-15T07:36:48;1.60;;;0.70;;
577;SDS011;275;48.492;9.214;2023-01-15T07:39:14;2.00;;;0.80;;
577;SDS011;275;48.492;9.214;2023-01-15T07:41:41;1.58;;;0.57;;
577;SDS011;275;48.492;9.214;2023-01-15T07:44:26;2.00;;;0.88;;
577;SDS011;275;48.492;9.214;2023-01-15T07:47:13;1.58;;;0.60;;
577;SDS011;275;48.492;9.214;2023-01-15T07:50:02;3.67;;;0.73;;
577;SDS011;275;48.492;9.214;2023-01-15T07:52:31;1.80;;;0.80;;
577;SDS011;275;48.492;9.214;2023-01-15T07:54:58;1.60;;;0.60;;
577;SDS011;275;48.492;9.214;2023-01-15T07:57:26;1.60;;;0.60;;
577;SDS011;275;48.492;9.214;2023-01-15T07:59:53;1.50;;;0.60;;
577;SDS011;275;48.492;9.214;2023-01-15T08:02:19;2.00;;;0.90;;
577;SDS011;275;48.492;9.214;2023-01-15T08:04:46;2.78;;;1.00;;
577;SDS011;275;48.492;9.214;2023-01-15T08:07:15;1.58;;;0.70;;
577;SDS011;275;48.492;9.214;2023-01-15T08:09:42;1.70;;;0.77;;
577;SDS011;275;48.492;9.214;2023-01-15T08:12:09;1.70;;;0.80;;
577;SDS011;275;48.492;9.214;2023-01-15T08:14:54;2.28;;;1.00;;
577;SDS011;275;48.492;9.214;2023-01-15T08:17:39;2.13;;;1.05;;
577;SDS011;275;48.492;9.214;2023-01-15T08:20:08;2.20;;;1.10;;
577;SDS011;275;48.492;9.214;2023-01-15T08:22:38;2.70;;;1.35;;
577;SDS011;275;48.492;9.214;2023-01-15T08:25:05;1.67;;;0.85;;
577;SDS011;275;48.492;9.214;2023-01-15T08:27:34;1.70;;;0.90;;
577;SDS011;275;48.492;9.214;2023-01-15T08:30:00;2.55;;;1.63;;
577;SDS011;275;48.492;9.214;2023-01-15T08:32:28;1.70;;;0.82;;
577;SDS011;275;48.492;9.214;2023-01-15T08:34:55;3.13;;;1.08;;
577;SDS011;275;48.492;9.214;2023-01-15T08:37:22;1.80;;;0.85;;
577;SDS011;275;48.492;9.214;2023-01-15T08:39:51;1.80;;;0.80;;
577;SDS011;275;48.492;9.214;2023-01-15T08:42:18;2.70;;;0.80;;
577;SDS011;275;48.492;9.214;2023-01-15T08:44:45;2.13;;;1.25;;
577;SDS011;275;48.492;9.214;2023-01-15T08:47:12;2.00;;;0.90;;
577;SDS011;275;48.492;9.214;2023-01-15T08:49:39;2.10;;;0.90;;
577;SDS011;275;48.492;9.214;2023-01-15T08:52:05;1.85;;;0.80;;
577;SDS011;275;48.492;9.214;2023-01-15T08:54:33;1.90;;;1.10;;
577;SDS011;275;48.492;9.214;2023-01-15T08:57:01;2.83;;;1.40;;
577;SDS011;275;48.492;9.214;2023-01-15T08:59:28;2.72;;;1.45;;
577;SDS011;275;48.492;9.214;2023-01-15T09:01:55;2.08;;;1.10;;
577;SDS011;275;48.492;9.214;2023-01-15T09:04:22;2.00;;;1.15;;
577;SDS011;275;48.492;9.214;2023-01-15T09:06:49;2.45;;;1.52;;
577;SDS011;275;48.492;9.214;2023-01-15T09:09:16;2.72;;;1.92;;
577;SDS011;275;48.492;9.214;2023-01-15T09:11:42;2.60;;;1.58;;
577;SDS011;275;48.492;9.214;2023-01-15T09:14:11;2.20;;;1.23;;
577;SDS011;275;48.492;9.214;2023-01-15T09:16:39;2.60;;;1.50;;
577;SDS011;275;48.492;9.214;2023-01-15T09:19:06;2.10;;;1.27;;
577;SDS011;275;48.492;9.214;2023-01-15T09:21:35;2.20;;;1.23;;
577;SDS011;275;48.492;9.214;2023-01-15T09:24:02;2.38;;;1.20;;
577;SDS011;275;48.492;9.214;2023-01-15T09:26:29;2.70;;;1.50;;
577;SDS011;275;48.492;9.214;2023-01-15T09:28:58;2.20;;;1.13;;
577;SDS011;275;48.492;9.214;2023-01-15T09:31:27;2.60;;;1.40;;
577;SDS011;275;48.492;9.214;2023-01-15T09:33:54;2.85;;;1.50;;
577;SDS011;275;48.492;9.214;2023-01-15T09:36:22;2.40;;;1.40;;
577;SDS011;275;48.492;9.214;2023-01-15T09:38:52;2.33;;;1.17;;
577;SDS011;275;48.492;9.214;2023-01-15T09:41:19;2.15;;;1.23;;
577;SDS011;275;48.492;9.214;2023-01-15T09:44:08;2.70;;;1.70;;
577;SDS011;275;48.492;9.214;2023-01-15T09:46:49;2.00;;;1.10;;
577;SDS011;275;48.492;9.214;2023-01-15T09:49:31;2.28;;;1.45;;
577;SDS011;275;48.492;9.214;2023-01-15T09:52:07;1.80;;;1.02;;
577;SDS011;275;48.492;9.214;2023-01-15T09:54:43;2.30;;;1.00;;
577;SDS011;275;48.492;9.214;2023-01-15T09:57:18;1.77;;;0.85;;
577;SDS011;275;48.492;9.214;2023-01-15T09:59:47;2.17;;;1.20;;
577;SDS011;275;48.492;9.214;2023-01-15T10:02:20;3.10;;;1.80;;
577;SDS011;275;48.492;9.214;2023-01-15T10:04:51;2.20;;;1.70;;
577;SDS011;275;48.492;9.214;2023-01-15T10:07:23;2.40;;;1.40;;
577;SDS011;275;48.492;9.214;2023-01-15T10:09:56;1.77;;;0.82;;
577;SDS011;275;48.492;9.214;2023-01-15T10:12:27;1.90;;;0.73;;
577;SDS011;275;48.492;9.214;2023-01-15T10:15:13;2.20;;;1.20;;
577;SDS011;275;48.492;9.214;2023-01-15T10:17:47;2.33;;;0.90;;
577;SDS011;275;48.492;9.214;2023-01-15T10:20:21;1.90;;;1.20;;
577;SDS011;275;48.492;9.214;2023-01-15T10:23:05;2.10;;;1.02;;
577;SDS011;275;48.492;9.214;2023-01-15T10:25:41;1.90;;;1.00;;
577;SDS011;275;48.492;9.214;2023-01-15T10:28:14;2.00;;;1.42;;
577;SDS011;275;48.492;9.214;2023-01-15T10:30:45;2.40;;;1.35;;
577;SDS011;275;48.492;9.214;2023-01-15T10:33:24;1.98;;;1.27;;
577;SDS011;275;48.492;9.214;2023-01-15T10:36:06;2.92;;;1.58;;
577;SDS011;275;48.492;9.214;2023-01-15T10:38:38;2.00;;;1.02;;
577;SDS011;275;48.492;9.214;2023-01-15T10:41:20;2.20;;;1.25;;
577;SDS011;275;48.492;9.214;2023-01-15T10:43:56;2.03;;;1.10;;
577;SDS011;275;48.492;9.214;2023-01-15T10:46:28;2.15;;;1.20;;
577;SDS011;275;48.492;9.214;2023-01-15T10:49:04;2.00;;;1.05;;
577;SDS011;275;48.492;9.214;2023-01-15T10:51:36;1.95;;;1.05;;
577;SDS011;275;48.492;9.214;2023-01-15T10:54:10;4.05;;;1.20;;
577;SDS011;275;48.492;9.214;2023-01-15T10:56:42;3.00;;;1.40;;
577;SDS011;275;48.492;9.214;2023-01-15T10:59:13;2.70;;;1.60;;
577;SDS011;275;48.492;9.214;2023-01-15T11:01:46;2.30;;;1.30;;
577;SDS011;275;48.492;9.214;2023-01-15T11:04:16;2.25;;;1.23;;
577;SDS011;275;48.492;9.214;2023-01-15T11:06:43;2.30;;;1.20;;
577;SDS011;275;48.492;9.214;2023-01-15T11:09:16;1.85;;;1.00;;
577;SDS011;275;48.492;9.214;2023-01-15T11:11:47;3.28;;;1.10;;
577;SDS011;275;48.492;9.214;2023-01-15T11:14:33;3.20;;;1.83;;
577;SDS011;275;48.492;9.214;2023-01-15T11:17:18;2.22;;;1.05;;
577;SDS011;275;48.492;9.214;2023-01-15T11:20:09;1.85;;;0.93;;
577;SDS011;275;48.492;9.214;2023-01-15T11:22:44;2.70;;;1.50;;
577;SDS011;275;48.492;9.214;2023-01-15T11:25:11;1.90;;;1.10;;
577;SDS011;275;48.492;9.214;2023-01-15T11:27:39;1.73;;;0.95;;
577;SDS011;275;48.492;9.214;2023-01-15T11:30:06;2.10;;;1.30;;
577;SDS011;275;48.492;9.214;2023-01-15T11:32:53;2.10;;;0.95;;
577;SDS011;275;48.492;9.214;2023-01-15T11:35:23;1.70;;;0.90;;
577;SDS011;275;48.492;9.214;2023-01-15T11:38:00;1.80;;;0.80;;
577;SDS011;275;48.492;9.214;2023-01-15T11:40:27;1.90;;;0.90;;
577;SDS011;275;48.492;9.214;2023-01-15T11:42:54;2.03;;;1.20;;
577;SDS011;275;48.492;9.214;2023-01-15T11:45:46;1.92;;;0.90;;
577;SDS011;275;48.492;9.214;2023-01-15T11:48:41;2.80;;;1.08;;
577;SDS011;275;48.492;9.214;2023-01-15T11:51:28;1.70;;;0.73;;
577;SDS011;275;48.492;9.214;2023-01-15T11:53:58;1.70;;;0.90;;
577;SDS011;275;48.492;9.214;2023-01-15T11:56:29;2.10;;;0.80;;
577;SDS011;275;48.492;9.214;2023-01-15T11:58:58;2.45;;;1.10;;
577;SDS011;275;48.492;9.214;2023-01-15T12:01:29;2.28;;;0.98;;
577;SDS011;275;48.492;9.214;2023-01-15T12:03:59;2.10;;;1.20;;
577;SDS011;275;48.492;9.214;2023-01-15T12:06:29;2.28;;;1.25;;
577;SDS011;275;48.492;9.214;2023-01-15T12:09:00;1.80;;;1.00;;
577;SDS011;275;48.492;9.214;2023-01-15T12:11:38;1.88;;;1.00;;
577;SDS011;275;48.492;9.214;2023-01-15T12:14:26;1.88;;;1.00;;
577;SDS011;275;48.492;9.214;2023-01-15T12:17:05;2.00;;;0.90;;
577;SDS011;275;48.492;9.214;2023-01-15T12:19:40;2.00;;;1.00;;
577;SDS011;275;48.492;9.214;2023-01-15T12:22:25;2.30;;;1.10;;
577;SDS011;275;48.492;9.214;2023-01-15T12:25:17;2.63;;;1.50;;
577;SDS011;275;48.492;9.214;2023-01-15T12:27:53;2.05;;;1.08;;
577;SDS011;275;48.492;9.214;2023-01-15T12:30:35;1.80;;;0.80;;
577;SDS011;275;48.492;9.214;2023-01-15T12:33:12;2.55;;;0.80;;
577;SDS011;275;48.492;9.214;2023-01-15T12:35:44;2.10;;;1.13;;
577;SDS011;275;48.492;9.214;2023-01-15T12:38:21;2.60;;;1.15;;
577;SDS011;275;48.492;9.214;2023-01-15T12:40:56;1.95;;;1.00;;
577;SDS011;275;48.492;9.214;2023-01-15T12:43:27;2.22;;;1.38;;
577;SDS011;275;48.492;9.214;2023-01-15T12:46:23;2.10;;;1.20;;
577;SDS011;275;48.492;9.214;2023-01-15T12:48:56;2.38;;;1.50;;
577;SDS011;275;48.492;9.214;2023-01-15T12:51:28;2.00;;;1.10;;
577;SDS011;275;48.492;9.214;2023-01-15T12:54:02;2.20;;;1.30;;
577;SDS011;275;48.492;9.214;2023-01-15T12:56:35;2.00;;;1.10;;
577;SDS011;275;48.492;9.214;2023-01-15T12:59:12;1.90;;;1.30;;
577;SDS011;275;48.492;9.214;2023-01-15T13:01:45;2.00;;;1.20;;
577;SDS011;275;48.492;9.214;2023-01-15T13:04:19;2.22;;;1.52;;
577;SDS011;275;48.492;9.214;2023-01-15T13:06:51;2.38;;;1.20;;
577;SDS011;275;48.492;9.214;2023-01-15T13:09:27;2.38;;;1.42;;
577;SDS011;275;48.492;9.214;2023-01-15T13:12:02;2.60;;;1.40;;
577;SDS011;275;48.492;9.214;2023-01-15T13:14:37;2.60;;;1.70;;
577;SDS011;275;48.492;9.214;2023-01-15T13:17:04;2.15;;;1.35;;
577;SDS011;275;48.492;9.214;2023-01-15T13:19:41;2.50;;;1.55;;
577;SDS011;275;48.492;9.214;2023-01-15T13:22:18;2.78;;;2.00;;
577;SDS011;275;48.492;9.214;2023-01-15T13:30:59;2.22;;;1.23;;
577;SDS011;275;48.492;9.214;2023-01-15T13:33:34;2.45;;;1.25;;
577;SDS011;275;48.492;9.214;2023-01-15T13:36:07;2.40;;;1.45;;
577;SDS011;275;48.492;9.214;2023-01-15T13:38:39;2.72;;;1.50;;
577;SDS011;275;48.492;9.214;2023-01-15T13:41:09;3.00;;;1.42;;
577;SDS011;275;48.492;9.214;2023-01-15T13:43:41;2.47;;;1.20;;
577;SDS011;275;48.492;9.214;2023-01-15T13:46:09;4.03;;;1.25;;
577;SDS011;275;48.492;9.214;2023-01-15T13:48:39;3.58;;;1.60;;
577;SDS011;275;48.492;9.214;2023-01-15T13:51:20;3.90;;;1.33;;
577;SDS011;275;48.492;9.214;2023-01-15T13:53:52;6.25;;;5.05;;
577;SDS011;275;48.492;9.214;2023-01-15T13:56:27;3.47;;;1.65;;
577;SDS011;275;48.492;9.214;2023-01-15T13:58:58;3.08;;;1.75;;
577;SDS011;275;48.492;9.214;2023-01-15T14:01:30;3.22;;;1.38;;
577;SDS011;275;48.492;9.214;2023-01-15T14:04:00;2.45;;;1.40;;
577;SDS011;275;48.492;9.214;2023-01-15T14:06:40;4.10;;;1.45;;
577;SDS011;275;48.492;9.214;2023-01-15T14:09:12;2.60;;;1.70;;
577;SDS011;275;48.492;9.214;2023-01-15T14:12:00;3.10;;;1.20;;
577;SDS011;275;48.492;9.214;2023-01-15T14:14:43;3.10;;;2.00;;
577;SDS011;275;48.492;9.214;2023-01-15T14:17:26;2.15;;;1.10;;
577;SDS011;275;48.492;9.214;2023-01-15T14:20:16;2.83;;;1.00;;
577;SDS011;275;48.492;9.214;2023-01-15T14:23:02;2.47;;;1.02;;
577;SDS011;275;48.492;9.214;2023-01-15T14:25:50;3.00;;;1.30;;
577;SDS011;275;48.492;9.214;2023-01-15T14:28:27;2.85;;;1.25;;
577;SDS011;275;48.492;9.214;2023-01-15T14:31:08;2.10;;;1.10;;
577;SDS011;275;48.492;9.214;2023-01-15T14:33:44;3.50;;;1.30;;
577;SDS011;275;48.492;9.214;2023-01-15T14:36:22;3.17;;;1.10;;
577;SDS011;275;48.492;9.214;2023-01-15T14:38:54;2.22;;;1.08;;
577;SDS011;275;48.492;9.214;2023-01-15T14:41:24;2.30;;;1.10;;
577;SDS011;275;48.492;9.214;2023-01-15T14:43:54;2.45;;;1.05;;
577;SDS011;275;48.492;9.214;2023-01-15T14:46:25;2.42;;;1.17;;
577;SDS011;275;48.492;9.214;2023-01-15T14:48:54;2.10;;;1.00;;
577;SDS011;275;48.492;9.214;2023-01-15T14:51:23;3.47;;;1.27;;
577;SDS011;275;48.492;9.214;2023-01-15T14:53:54;2.92;;;1.50;;
577;SDS011;275;48.492;9.214;2023-01-15T14:56:22;2.97;;;1.08;;
577;SDS011;275;48.492;9.214;2023-01-15T14:58:58;2.75;;;1.40;;
577;SDS011;275;48.492;9.214;2023-01-15T15:01:31;2.00;;;1.00;;
577;SDS011;275;48.492;9.214;2023-01-15T15:04:07;2.72;;;1.50;;
577;SDS011;275;48.492;9.214;2023-01-15T15:06:44;2.08;;;1.10;;
577;SDS011;275;48.492;9.214;2023-01-15T15:09:13;2.42;;;1.27;;
577;SDS011;275;48.492;9.214;2023-01-15T15:11:51;2.47;;;1.30;;
577;SDS011;275;48.492;9.214;2023-01-15T15:14:40;2.90;;;1.40;;
577;SDS011;275;48.492;9.214;2023-01-15T15:17:24;2.35;;;1.25;;
577;SDS011;275;48.492;9.214;2023-01-15T15:19:59;2.28;;;1.40;;
577;SDS011;275;48.492;9.214;2023-01-15T15:22:40;3.25;;;1.60;;
577;SDS011;275;48.492;9.214;2023-01-15T15:25:10;3.28;;;1.80;;
577;SDS011;275;48.492;9.214;2023-01-15T15:27:44;2.83;;;1.30;;
577;SDS011;275;48.492;9.214;2023-01-15T15:30:11;3.00;;;1.55;;
577;SDS011;275;48.492;9.214;2023-01-15T15:32:41;2.58;;;1.73;;
577;SDS011;275;48.492;9.214;2023-01-15T15:35:21;2.80;;;1.50;;
577;SDS011;275;48.492;9.214;2023-01-15T15:37:51;2.60;;;1.55;;
577;SDS011;275;48.492;9.214;2023-01-15T15:40:19;2.90;;;1.90;;
577;SDS011;275;48.492;9.214;2023-01-15T15:42:50;3.08;;;1.70;;
577;SDS011;275;48.492;9.214;2023-01-15T15:45:49;4.10;;;3.20;;
577;SDS011;275;48.492;9.214;2023-01-15T15:48:35;3.15;;;1.60;;
577;SDS011;275;48.492;9.214;2023-01-15T15:51:30;3.00;;;1.85;;
577;SDS011;275;48.492;9.214;2023-01-15T15:54:09;2.65;;;1.63;;
577;SDS011;275;48.492;9.214;2023-01-15T15:56:39;2.20;;;1.40;;
577;SDS011;275;48.492;9.214;2023-01-15T15:59:13;3.03;;;1.85;;
577;SDS011;275;48.492;9.214;2023-01-15T16:01:44;3.72;;;1.83;;
577;SDS011;275;48.492;9.214;2023-01-15T16:04:15;3.40;;;2.30;;
577;SDS011;275;48.492;9.214;2023-01-15T16:06:44;4.15;;;2.00;;
577;SDS011;275;48.492;9.214;2023-01-15T16:09:10;3.50;;;1.85;;
577;SDS011;275;48.492;9.214;2023-01-15T16:11:37;3.88;;;2.03;;
577;SDS011;275;48.492;9.214;2023-01-15T16:14:07;5.05;;;2.17;;
577;SDS011;275;48.492;9.214;2023-01-15T16:16:39;4.75;;;1.55;;
577;SDS011;275;48.492;9.214;2023-01-15T16:19:08;3.38;;;1.75;;
577;SDS011;275;48.492;9.214;2023-01-15T16:21:42;5.55;;;2.15;;